createdAt,value
2022-10-24T00:01:33.759Z,13.90
2022-10-24T00:04:01.656Z,14.00
2022-10-24T00:06:29.530Z,14.10
2022-10-24T00:08:57.468Z,14.10
2022-10-24T00:11:27.423Z,14.10
2022-10-24T00:13:57.460Z,14.40
2022-10-24T00:16:26.751Z,14.30
2022-10-24T00:18:54.657Z,14.30
2022-10-24T00:21:22.875Z,14.30
2022-10-24T00:23:50.861Z,14.00
2022-10-24T00:26:19.113Z,14.10
2022-10-24T00:28:47.484Z,14.00
2022-10-24T00:31:17.306Z,14.20
2022-10-24T00:33:47.806Z,14.30
2022-10-24T00:36:17.942Z,13.90
2022-10-24T00:38:45.982Z,14.00
2022-10-24T00:41:16.249Z,14.20
2022-10-24T00:43:44.022Z,14.20
2022-10-24T00:46:12.602Z,14.30
2022-10-24T00:48:42.862Z,14.00
2022-10-24T00:51:21.450Z,13.80
2022-10-24T00:53:52.165Z,13.90
2022-10-24T00:56:22.802Z,13.80
2022-10-24T00:58:52.898Z,13.90
2022-10-24T01:01:20.826Z,13.70
2022-10-24T01:03:49.537Z,14.00
2022-10-24T01:06:42.658Z,13.90
2022-10-24T01:09:21.821Z,13.80
2022-10-24T01:11:59.380Z,13.90
2022-10-24T01:14:37.970Z,13.90
2022-10-24T01:17:14.178Z,14.10
2022-10-24T01:20:16.094Z,14.00
2022-10-24T01:22:55.702Z,14.10
2022-10-24T01:25:36.116Z,14.00
2022-10-24T01:28:08.683Z,14.00
2022-10-24T01:30:43.248Z,14.40
2022-10-24T01:33:18.610Z,14.40
2022-10-24T01:35:51.175Z,14.40
2022-10-24T01:38:26.839Z,14.10
2022-10-24T01:40:58.674Z,14.20
2022-10-24T01:43:29.740Z,14.20
2022-10-24T01:46:03.329Z,14.10
2022-10-24T01:48:35.606Z,14.20
2022-10-24T01:51:05.452Z,14.20
2022-10-24T01:53:33.361Z,14.10
2022-10-24T01:56:01.898Z,14.10
2022-10-24T01:58:29.625Z,14.00
2022-10-24T02:01:04.141Z,14.00
2022-10-24T02:03:35.896Z,14.20
2022-10-24T02:06:08.716Z,14.10
2022-10-24T02:08:44.471Z,14.20
2022-10-24T02:11:12.854Z,14.20
2022-10-24T02:13:46.079Z,14.20
2022-10-24T02:16:18.737Z,14.10
2022-10-24T02:18:47.353Z,14.30
2022-10-24T02:21:26.858Z,14.30
2022-10-24T02:23:58.354Z,14.10
2022-10-24T02:26:33.684Z,14.10
2022-10-24T02:29:05.457Z,14.10
2022-10-24T02:31:40.075Z,14.00
2022-10-24T02:34:09.927Z,14.10
2022-10-24T02:36:40.896Z,14.10
2022-10-24T02:39:11.545Z,13.90
2022-10-24T02:41:42.725Z,13.90
2022-10-24T02:44:12.504Z,14.10
2022-10-24T02:46:42.835Z,13.90
2022-10-24T02:49:10.858Z,14.20
2022-10-24T02:51:41.604Z,13.90
2022-10-24T02:54:11.026Z,13.90
2022-10-24T02:56:42.568Z,13.90
2022-10-24T02:59:10.512Z,13.90
2022-10-24T03:01:38.615Z,13.80
2022-10-24T03:04:08.231Z,13.80
2022-10-24T03:06:36.077Z,13.80
2022-10-24T03:09:04.180Z,13.80
2022-10-24T03:11:31.945Z,13.60
2022-10-24T03:13:59.684Z,14.00
2022-10-24T03:16:28.559Z,13.70
2022-10-24T03:18:56.379Z,13.90
2022-10-24T03:21:25.785Z,13.80
2022-10-24T03:23:54.057Z,13.50
2022-10-24T03:26:21.866Z,13.60
2022-10-24T03:28:49.892Z,13.60
2022-10-24T03:31:17.752Z,13.70
2022-10-24T03:33:45.478Z,13.70
2022-10-24T03:36:13.296Z,13.80
2022-10-24T03:38:42.366Z,13.80
2022-10-24T03:41:10.159Z,13.60
2022-10-24T03:43:37.971Z,13.60
2022-10-24T03:46:05.900Z,13.70
2022-10-24T03:48:33.750Z,13.60
2022-10-24T03:51:01.585Z,13.40
2022-10-24T03:53:29.388Z,13.60
2022-10-24T03:55:58.483Z,13.50
2022-10-24T03:58:26.326Z,13.40
2022-10-24T04:00:55.355Z,13.50
2022-10-24T04:03:23.253Z,13.50
2022-10-24T04:05:51.087Z,13.50
2022-10-24T04:08:19.915Z,13.30
2022-10-24T04:10:47.765Z,13.50
2022-10-24T04:13:16.950Z,13.50
2022-10-24T04:15:44.781Z,13.60
2022-10-24T04:18:12.694Z,13.60
2022-10-24T04:20:40.425Z,13.40
2022-10-24T04:23:08.963Z,13.30
2022-10-24T04:25:36.781Z,13.30
2022-10-24T04:28:04.968Z,13.30
2022-10-24T04:30:35.711Z,13.30
2022-10-24T04:33:03.573Z,13.30
2022-10-24T04:35:31.422Z,13.20
2022-10-24T04:37:59.470Z,13.20
2022-10-24T04:40:27.337Z,13.20
2022-10-24T04:42:55.119Z,13.30
2022-10-24T04:45:22.989Z,13.20
2022-10-24T04:47:52.059Z,13.10
2022-10-24T04:50:19.959Z,13.00
2022-10-24T04:52:47.900Z,13.10
2022-10-24T04:55:15.855Z,13.10
2022-10-24T04:57:43.949Z,13.10
2022-10-24T05:00:13.086Z,13.00
2022-10-24T05:02:40.994Z,13.10
2022-10-24T05:05:10.410Z,13.20
2022-10-24T05:07:38.791Z,13.00
2022-10-24T05:10:07.450Z,13.10
2022-10-24T05:12:35.222Z,13.20
2022-10-24T05:15:03.174Z,13.10
2022-10-24T05:17:30.952Z,13.10
2022-10-24T05:19:58.754Z,13.20
2022-10-24T05:22:28.556Z,13.20
2022-10-24T05:24:56.372Z,13.20
2022-10-24T05:30:19.723Z,13.20
2022-10-24T05:32:47.869Z,13.30
2022-10-24T05:35:16.055Z,13.30
2022-10-24T05:37:45.262Z,13.20
2022-10-24T05:40:13.976Z,13.30
2022-10-24T05:42:41.971Z,13.30
2022-10-24T05:45:11.997Z,13.40
2022-10-24T05:47:40.065Z,13.30
2022-10-24T05:50:09.260Z,13.40
2022-10-24T05:52:37.133Z,13.40
2022-10-24T05:55:08.649Z,13.30
2022-10-24T05:57:36.747Z,13.30
2022-10-24T06:00:06.429Z,13.40
2022-10-24T06:02:39.860Z,13.30
2022-10-24T06:05:13.046Z,13.30
2022-10-24T06:07:41.962Z,13.30
2022-10-24T06:10:12.787Z,13.40
2022-10-24T06:12:42.095Z,13.30
2022-10-24T06:15:11.033Z,13.20
2022-10-24T06:17:40.206Z,13.20
2022-10-24T06:20:09.433Z,13.30
2022-10-24T06:22:37.157Z,13.20
2022-10-24T06:25:05.557Z,13.30
2022-10-24T06:27:37.244Z,13.20
2022-10-24T06:30:06.294Z,13.30
2022-10-24T06:32:36.959Z,13.30
2022-10-24T06:35:07.243Z,13.20
2022-10-24T06:37:37.284Z,13.30
2022-10-24T06:40:05.475Z,13.20
2022-10-24T06:42:34.662Z,13.20
2022-10-24T06:45:02.725Z,13.20
2022-10-24T06:47:31.965Z,13.20
2022-10-24T06:49:59.722Z,13.30
2022-10-24T06:52:27.481Z,13.30
2022-10-24T06:54:55.796Z,13.40
2022-10-24T06:57:23.729Z,13.40
2022-10-24T06:59:53.884Z,13.40
2022-10-24T07:02:21.748Z,13.50
2022-10-24T07:04:49.515Z,13.50
2022-10-24T07:07:21.519Z,13.50
2022-10-24T07:09:54.091Z,13.50
2022-10-24T07:12:23.031Z,13.70
2022-10-24T07:14:52.113Z,13.60
2022-10-24T07:17:21.055Z,13.70
2022-10-24T07:19:57.044Z,13.70
2022-10-24T07:22:24.977Z,13.70
2022-10-24T07:24:56.985Z,13.70
2022-10-24T07:27:25.554Z,13.70
2022-10-24T07:29:54.777Z,13.80
2022-10-24T07:32:22.658Z,13.70
2022-10-24T07:34:50.799Z,13.80
2022-10-24T07:37:19.358Z,13.80
2022-10-24T07:39:47.364Z,13.70
2022-10-24T07:42:15.933Z,13.80
2022-10-24T07:44:43.754Z,13.80
2022-10-24T07:47:12.929Z,13.80
2022-10-24T07:49:43.870Z,13.80
2022-10-24T07:52:11.887Z,13.90
2022-10-24T07:54:39.596Z,14.00
2022-10-24T07:57:08.414Z,13.90
2022-10-24T07:59:42.190Z,14.00
2022-10-24T08:02:13.047Z,14.00
2022-10-24T08:04:41.335Z,14.00
2022-10-24T08:07:13.297Z,14.10
2022-10-24T08:09:42.370Z,14.10
2022-10-24T08:12:10.612Z,14.30
2022-10-24T08:14:39.147Z,14.30
2022-10-24T08:17:09.910Z,14.40
2022-10-24T08:19:45.585Z,14.50
2022-10-24T08:22:17.615Z,14.60
2022-10-24T08:24:45.682Z,14.70
2022-10-24T08:27:14.103Z,14.70
2022-10-24T08:29:42.263Z,14.80
2022-10-24T08:32:10.044Z,14.80
2022-10-24T08:34:40.206Z,15.00
2022-10-24T08:37:07.966Z,14.90
2022-10-24T08:39:35.748Z,15.10
2022-10-24T08:42:07.165Z,15.10
2022-10-24T08:44:37.897Z,15.20
2022-10-24T08:47:13.602Z,15.20
2022-10-24T08:49:50.261Z,15.20
2022-10-24T08:52:27.530Z,15.20
2022-10-24T08:54:56.500Z,15.20
2022-10-24T08:57:30.375Z,15.40
2022-10-24T09:00:02.087Z,15.40
2022-10-24T09:02:33.194Z,15.50
2022-10-24T09:05:06.447Z,15.50
2022-10-24T09:07:35.124Z,15.60
2022-10-24T09:10:08.724Z,15.90
2022-10-24T09:15:35.565Z,15.80
2022-10-24T09:18:03.427Z,15.90
2022-10-24T09:20:33.566Z,16.00
2022-10-24T09:23:06.130Z,16.00
2022-10-24T09:25:39.008Z,16.10
2022-10-24T09:28:07.688Z,16.20
2022-10-24T09:30:37.419Z,16.10
2022-10-24T09:33:13.962Z,16.30
2022-10-24T09:35:44.230Z,16.30
2022-10-24T09:38:34.157Z,16.40
2022-10-24T09:41:05.504Z,16.40
2022-10-24T09:43:40.058Z,16.50
2022-10-24T09:46:10.540Z,16.50
2022-10-24T09:48:51.985Z,16.60
2022-10-24T09:51:27.322Z,16.70
2022-10-24T09:54:02.455Z,16.70
2022-10-24T09:56:39.084Z,16.80
2022-10-24T09:59:34.745Z,16.90
2022-10-24T10:02:20.016Z,16.70
2022-10-24T10:04:52.038Z,17.00
2022-10-24T10:07:28.179Z,17.00
2022-10-24T10:10:00.861Z,17.00
2022-10-24T10:12:32.319Z,17.10
2022-10-24T10:15:01.988Z,17.10
2022-10-24T10:17:31.863Z,17.10
2022-10-24T10:20:00.331Z,17.20
2022-10-24T10:22:32.973Z,17.20
2022-10-24T10:25:01.736Z,17.30
2022-10-24T10:27:35.824Z,17.40
2022-10-24T10:30:10.158Z,17.40
2022-10-24T10:32:47.706Z,17.50
2022-10-24T10:35:21.110Z,17.50
2022-10-24T10:38:00.061Z,17.60
2022-10-24T10:40:33.312Z,17.70
2022-10-24T10:43:15.183Z,17.70
2022-10-24T10:45:51.586Z,17.90
2022-10-24T10:48:35.957Z,17.90
2022-10-24T10:51:12.689Z,18.10
2022-10-24T10:53:49.903Z,18.10
2022-10-24T10:56:27.518Z,18.20
2022-10-24T10:59:13.604Z,18.20
2022-10-24T11:01:50.284Z,18.30
2022-10-24T11:04:29.555Z,18.40
2022-10-24T11:07:07.471Z,18.40
2022-10-24T11:09:41.982Z,18.40
2022-10-24T11:12:17.050Z,18.30
2022-10-24T11:14:47.859Z,18.40
2022-10-24T11:17:21.278Z,18.40
2022-10-24T11:20:00.716Z,18.50
2022-10-24T11:22:31.805Z,18.50
2022-10-24T11:25:06.592Z,18.60
2022-10-24T11:27:41.241Z,18.70
2022-10-24T11:30:16.481Z,19.00
2022-10-24T11:32:50.823Z,18.90
2022-10-24T11:35:28.649Z,18.80
2022-10-24T11:38:01.224Z,18.60
2022-10-24T11:43:10.790Z,18.60
2022-10-24T11:45:45.488Z,18.60
2022-10-24T11:48:22.295Z,18.60
2022-10-24T11:50:55.131Z,18.70
2022-10-24T11:53:45.726Z,18.60
2022-10-24T11:56:21.326Z,18.50
2022-10-24T11:58:58.417Z,18.50
2022-10-24T12:01:49.195Z,18.50
2022-10-24T12:04:46.747Z,18.40
2022-10-24T12:07:48.615Z,18.40
2022-10-24T12:10:32.105Z,18.40
2022-10-24T12:13:22.166Z,18.40
2022-10-24T12:16:02.301Z,18.40
2022-10-24T12:18:33.818Z,18.40
2022-10-24T12:21:05.675Z,18.40
2022-10-24T12:23:34.413Z,18.30
2022-10-24T12:26:07.859Z,18.40
2022-10-24T12:29:04.741Z,18.30
2022-10-24T12:31:34.277Z,18.20
2022-10-24T12:34:31.900Z,18.10
2022-10-24T12:37:09.351Z,18.20
2022-10-24T12:39:39.177Z,18.20
2022-10-24T12:42:18.395Z,18.20
2022-10-24T12:44:50.396Z,18.10
2022-10-24T12:47:39.864Z,18.10
2022-10-24T12:50:45.243Z,18.00
2022-10-24T12:53:20.485Z,18.00
2022-10-24T12:56:10.569Z,18.00
2022-10-24T12:58:39.340Z,17.90
2022-10-24T13:01:12.821Z,17.90
2022-10-24T13:03:57.286Z,17.90
2022-10-24T13:06:29.796Z,17.80
2022-10-24T13:09:13.659Z,17.80
2022-10-24T13:11:54.512Z,17.80
2022-10-24T13:14:49.278Z,17.80
2022-10-24T13:17:24.169Z,17.80
2022-10-24T13:20:04.781Z,17.80
2022-10-24T13:22:37.347Z,17.80
2022-10-24T13:25:21.361Z,17.80
2022-10-24T13:28:40.234Z,17.70
2022-10-24T13:31:40.332Z,17.70
2022-10-24T13:34:22.971Z,17.70
2022-10-24T13:36:54.351Z,17.70
2022-10-24T13:39:26.114Z,17.60
2022-10-24T13:42:00.258Z,17.60
2022-10-24T13:44:35.159Z,17.70
2022-10-24T13:47:15.348Z,17.60
2022-10-24T13:49:53.519Z,17.60
2022-10-24T13:52:26.607Z,17.60
2022-10-24T13:55:00.797Z,17.60
2022-10-24T13:57:33.731Z,17.60
2022-10-24T14:00:04.218Z,17.60
2022-10-24T14:02:42.455Z,17.60
2022-10-24T14:05:26.971Z,17.60
2022-10-24T14:07:55.360Z,17.70
2022-10-24T14:10:23.410Z,17.80
2022-10-24T14:12:57.333Z,17.80
2022-10-24T14:15:28.891Z,17.80
2022-10-24T14:17:59.854Z,17.70
2022-10-24T14:20:32.571Z,17.70
2022-10-24T14:23:02.097Z,17.70
2022-10-24T14:25:35.154Z,17.70
2022-10-24T14:28:04.871Z,17.70
2022-10-24T14:30:35.127Z,17.60
2022-10-24T14:33:19.610Z,17.50
2022-10-24T14:35:51.250Z,17.40
2022-10-24T14:38:23.645Z,17.20
2022-10-24T14:41:06.409Z,17.10
2022-10-24T14:43:37.550Z,17.10
2022-10-24T14:46:26.007Z,17.00
2022-10-24T14:48:54.669Z,16.90
2022-10-24T14:51:28.982Z,16.90
2022-10-24T14:53:58.154Z,16.90
2022-10-24T14:56:28.139Z,16.90
2022-10-24T14:59:01.043Z,16.80
2022-10-24T15:01:30.032Z,16.80
2022-10-24T15:04:01.820Z,16.80
2022-10-24T15:06:38.860Z,16.80
2022-10-24T15:09:18.043Z,16.80
2022-10-24T15:11:47.571Z,16.80
2022-10-24T15:14:39.507Z,16.70
2022-10-24T15:17:29.819Z,16.70
2022-10-24T15:20:03.424Z,16.60
2022-10-24T15:22:35.805Z,16.60
2022-10-24T15:25:08.488Z,16.50
2022-10-24T15:27:41.575Z,16.40
2022-10-24T15:30:15.615Z,16.40
2022-10-24T15:32:43.498Z,16.30
2022-10-24T15:35:16.407Z,16.20
2022-10-24T15:37:56.217Z,16.20
2022-10-24T15:40:27.317Z,16.10
2022-10-24T15:42:55.190Z,16.00
2022-10-24T15:45:23.416Z,15.90
2022-10-24T15:47:52.833Z,15.90
2022-10-24T15:52:57.291Z,15.80
2022-10-24T15:55:27.086Z,15.80
2022-10-24T15:57:57.014Z,15.70
2022-10-24T16:00:26.405Z,15.70
2022-10-24T16:02:57.071Z,15.70
2022-10-24T16:05:28.965Z,15.60
2022-10-24T16:07:58.173Z,15.50
2022-10-24T16:10:26.144Z,15.50
2022-10-24T16:12:54.057Z,15.50
2022-10-24T16:15:26.641Z,15.40
2022-10-24T16:17:55.035Z,15.30
2022-10-24T16:20:23.015Z,15.40
2022-10-24T16:22:51.510Z,15.40
2022-10-24T16:25:22.893Z,15.30
2022-10-24T16:27:51.622Z,15.30
2022-10-24T16:30:21.769Z,15.30
2022-10-24T16:33:17.409Z,15.20
2022-10-24T16:35:45.324Z,15.20
2022-10-24T16:38:13.272Z,15.10
2022-10-24T16:40:44.381Z,15.10
2022-10-24T16:43:14.399Z,15.00
2022-10-24T16:45:42.667Z,15.00
2022-10-24T16:48:10.638Z,14.90
2022-10-24T16:50:42.295Z,14.90
2022-10-24T16:53:10.466Z,14.90
2022-10-24T16:55:38.585Z,14.80
2022-10-24T16:58:11.512Z,14.80
2022-10-24T17:00:39.445Z,14.80
2022-10-24T17:03:07.323Z,14.80
2022-10-24T17:05:35.435Z,14.80
2022-10-24T17:08:03.355Z,14.80
2022-10-24T17:13:25.533Z,14.80
2022-10-24T17:15:53.392Z,14.80
2022-10-24T17:18:23.371Z,14.90
2022-10-24T17:20:58.495Z,14.90
2022-10-24T17:23:27.327Z,14.90
2022-10-24T17:25:56.032Z,14.90
2022-10-24T17:31:07.846Z,15.00
2022-10-24T17:33:37.268Z,14.90
2022-10-24T17:36:07.485Z,14.90
2022-10-24T17:38:44.669Z,14.80
2022-10-24T17:41:19.617Z,14.80
2022-10-24T17:43:48.535Z,14.70
2022-10-24T17:46:18.597Z,14.70
2022-10-24T17:48:46.521Z,14.70
2022-10-24T17:51:18.059Z,14.80
2022-10-24T17:53:45.978Z,14.80
2022-10-24T17:56:14.232Z,14.80
2022-10-24T17:58:42.224Z,14.80
2022-10-24T18:01:11.886Z,14.90
2022-10-24T18:03:41.180Z,14.90
2022-10-24T18:06:11.511Z,14.90
2022-10-24T18:08:39.538Z,14.90
2022-10-24T18:11:09.030Z,14.90
2022-10-24T18:13:37.383Z,14.80
2022-10-24T18:16:08.198Z,14.80
2022-10-24T18:18:36.171Z,14.80
2022-10-24T18:21:10.352Z,14.80
2022-10-24T18:23:40.886Z,14.80
2022-10-24T18:26:09.142Z,14.90
2022-10-24T18:28:42.049Z,14.90
2022-10-24T18:31:11.483Z,14.90
2022-10-24T18:33:40.184Z,14.90
2022-10-24T18:36:12.427Z,14.90
2022-10-24T18:38:41.291Z,14.90
2022-10-24T18:41:34.580Z,14.90
2022-10-24T18:44:13.629Z,14.90
2022-10-24T18:46:42.218Z,14.90
2022-10-24T18:49:11.416Z,14.90
2022-10-24T18:51:50.333Z,14.90
2022-10-24T18:54:24.679Z,14.90
2022-10-24T18:56:52.878Z,14.90
2022-10-24T18:59:22.358Z,14.90
2022-10-24T19:02:03.648Z,14.90
2022-10-24T19:04:33.840Z,14.90
2022-10-24T19:07:04.134Z,14.80
2022-10-24T19:09:32.006Z,14.80
2022-10-24T19:12:00.002Z,14.80
2022-10-24T19:14:28.515Z,14.80
2022-10-24T19:16:58.113Z,14.80
2022-10-24T19:19:29.536Z,14.80
2022-10-24T19:21:57.513Z,14.70
2022-10-24T19:24:28.010Z,14.70
2022-10-24T19:26:55.830Z,14.70
2022-10-24T19:29:23.568Z,14.70
2022-10-24T19:31:51.463Z,14.70
2022-10-24T19:34:19.310Z,14.60
2022-10-24T19:36:47.047Z,14.60
2022-10-24T19:39:14.938Z,14.60
2022-10-24T19:41:44.008Z,14.60
2022-10-24T19:44:11.732Z,14.50
2022-10-24T19:46:39.571Z,14.60
2022-10-24T19:49:07.301Z,14.50
2022-10-24T19:51:35.055Z,14.50
2022-10-24T19:54:03.083Z,14.50
2022-10-24T19:56:31.341Z,14.50
2022-10-24T19:59:29.689Z,14.50
2022-10-24T20:04:26.252Z,14.50
2022-10-24T20:06:54.032Z,14.40
2022-10-24T20:09:22.063Z,14.30
2022-10-24T20:11:49.827Z,14.20
2022-10-24T20:14:17.818Z,14.10
2022-10-24T20:16:46.899Z,14.00
2022-10-24T20:19:14.639Z,14.00
2022-10-24T20:21:42.524Z,13.90
2022-10-24T20:24:10.760Z,13.90
2022-10-24T20:26:38.714Z,13.90
2022-10-24T20:29:06.668Z,13.80
2022-10-24T20:31:36.388Z,13.80
2022-10-24T20:34:09.688Z,13.80
2022-10-24T20:36:38.538Z,13.70
2022-10-24T20:39:07.617Z,13.70
2022-10-24T20:41:36.251Z,13.70
2022-10-24T20:44:04.414Z,13.70
2022-10-24T20:46:32.634Z,13.70
2022-10-24T20:49:01.182Z,13.60
2022-10-24T20:51:30.278Z,13.60
2022-10-24T20:53:58.043Z,13.60
2022-10-24T20:56:26.689Z,13.60
2022-10-24T20:58:56.475Z,13.60
2022-10-24T21:01:25.921Z,13.50
2022-10-24T21:03:55.215Z,13.50
2022-10-24T21:06:24.516Z,13.50
2022-10-24T21:08:55.681Z,13.40
2022-10-24T21:11:26.573Z,13.40
2022-10-24T21:13:56.040Z,13.40
2022-10-24T21:16:24.608Z,13.40
2022-10-24T21:18:52.993Z,13.40
2022-10-24T21:21:22.185Z,13.30
2022-10-24T21:23:52.861Z,13.30
2022-10-24T21:26:21.308Z,13.30
2022-10-24T21:28:49.426Z,13.30
2022-10-24T21:31:18.653Z,13.30
2022-10-24T21:33:46.928Z,13.20
2022-10-24T21:36:16.617Z,13.20
2022-10-24T21:38:48.264Z,13.20
2022-10-24T21:41:18.363Z,13.20
2022-10-24T21:43:46.450Z,13.20
2022-10-24T21:46:16.769Z,13.20
2022-10-24T21:48:45.563Z,13.10
2022-10-24T21:51:15.167Z,13.10
2022-10-24T21:53:45.454Z,13.10
2022-10-24T21:56:15.487Z,13.10
2022-10-24T21:58:47.942Z,13.10
2022-10-24T22:01:19.139Z,13.10
2022-10-24T22:03:48.074Z,13.10
2022-10-24T22:06:17.421Z,13.10
2022-10-24T22:08:46.231Z,13.00
2022-10-24T22:11:16.997Z,13.00
2022-10-24T22:13:46.681Z,13.00
2022-10-24T22:16:15.242Z,13.00
2022-10-24T22:18:43.579Z,13.00
2022-10-24T22:21:19.718Z,13.00
2022-10-24T22:23:47.490Z,13.00
2022-10-24T22:26:15.209Z,13.00
2022-10-24T22:28:42.941Z,13.00
2022-10-24T22:31:15.187Z,12.90
2022-10-24T22:33:43.964Z,12.90
2022-10-24T22:36:18.665Z,12.90
2022-10-24T22:38:46.877Z,12.90
2022-10-24T22:41:15.023Z,12.90
2022-10-24T22:43:43.186Z,12.80
2022-10-24T22:46:27.853Z,12.80
2022-10-24T22:49:00.079Z,12.80
2022-10-24T22:51:28.376Z,12.80
2022-10-24T22:53:56.622Z,12.80
2022-10-24T22:56:30.674Z,12.80
2022-10-24T22:58:59.949Z,12.70
2022-10-24T23:01:43.266Z,12.70
2022-10-24T23:04:23.467Z,12.70
2022-10-24T23:06:55.029Z,12.70
2022-10-24T23:09:22.825Z,12.60
2022-10-24T23:11:51.138Z,12.60
2022-10-24T23:14:19.381Z,12.60
2022-10-24T23:16:54.266Z,12.60
2022-10-24T23:19:24.497Z,12.60
2022-10-24T23:21:56.942Z,12.60
2022-10-24T23:24:25.689Z,12.60
2022-10-24T23:27:14.188Z,12.60
2022-10-24T23:29:43.941Z,12.60
2022-10-24T23:32:20.213Z,12.60
2022-10-24T23:34:48.713Z,12.60
2022-10-24T23:37:27.501Z,12.70
2022-10-24T23:39:55.747Z,12.70
2022-10-24T23:42:24.137Z,12.70
2022-10-24T23:44:52.532Z,12.70
2022-10-24T23:47:39.486Z,12.80
2022-10-24T23:50:16.037Z,12.80
2022-10-24T23:53:00.689Z,12.80
2022-10-24T23:55:31.077Z,12.90
2022-10-24T23:58:01.014Z,12.90
